METAR Data
IDs: Format: Raw Decoded Include TAF

Data at: 1322 UTC 21 Apr 2021

METAR for:KFFL (Fairfield Muni, IA, US)
Text:KFFL 211315Z AUTO 27006KT 10SM CLR 01/M06 A3019 RMK A01
Temperature: 1.0°C ( 34°F)
Dewpoint: -6.0°C ( 21°F) [RH = 59%]
Pressure (altimeter):30.19 inches Hg (1022.4 mb)
Winds:from the W (270 degrees) at 7 MPH (6 knots; 3.1 m/s)
Visibility:10 or more sm (16+ km)
Ceiling:at least 12,000 feet AGL
Clouds:sky clear below 12,000 feet AGL
QC Flag:automated observation with no human augmentation